Twin Springs, Nevada Weather observations

Data are for observation ending at time listed.
 Day   Time    Ave.   Ave.  Ave.  Vector   Max.   Stn.    Total    Solar   Ave.  
  of    of     Air    Rel.  Wind   Wind    Wind   Baro.  Precip.   Rad.    Soil  
Year   Day     Temp.  Hum.  Speed  Dir.    Gust   Pres.                    Temp. 
2014   (PST)    F      %     mph   deg.    mph     mb.     in.     W/m2     F   
------------------------------------------------------------------------------
 355    1:00   32.6    92    2.4   114      7.4    848     0.00       0    37.0
 355    2:00   32.3    93    3.3    83      7.8    848     0.00       0    36.7
 355    3:00   30.6    94    3.0   309      5.7    848     0.00       0    36.4
 355    4:00   30.3    94    2.6    29      6.0    847     0.00       0    36.2
 355    5:00   29.6    95    4.1   322      6.7    847     0.00       0    36.0
 355    6:00   29.3    95    3.3   326      5.5    847     0.00       0    35.8
 355    7:00   28.5    96    4.4   325      6.7    848     0.00       0    35.6
 355    8:00   29.2    95    5.4   329      8.2    847     0.00      41    35.4
 355    9:00   30.9    93    4.6   305      8.0    848     0.00     132    35.2
 355   10:00   34.4    88    4.0   347      7.2    848     0.00     240    35.1
 355   11:00   39.5    78    2.7   312      5.8    848     0.00     325    35.2
 355   12:00   44.2    69    4.2   324      7.4    847     0.00     428    36.1
 355   13:00   50.0    58    2.3   260      5.5    846     0.00     480    38.1
 355   14:00   52.8    55    2.4   156      6.0    846     0.00     318    40.6
 355   15:00   51.5    58    2.9   139      6.9    846     0.00     140    42.4
 355   16:00   50.3    64    3.2   124      5.3    846     0.00      73    43.1
 355   17:00   45.9    74    3.6   128      8.9    846     0.00       4    43.2
 355   18:00   44.7    72    3.8   109      7.2    847     0.00       0    42.7
 355   19:00   47.2    65    3.8   307     13.7    847     0.00       0    42.0
 355   20:00   50.7    58    6.3   262     12.6    847     0.00       0    41.5
 355   21:00   49.0    62    5.8   304     13.6    848     0.00       0    41.2
 355   22:00   45.7    67    5.6   329      9.1    848     0.00       0    41.0
 355   23:00   43.4    72    5.9   329     15.1    848     0.00       0    40.6
 356    0:00   45.3    69    6.5   324     16.7    848     0.00       0    40.2

Return to Twin Springs, Nevada graphs page.


Western Regional Climate Center,wrcc@dri.edu